Latest Weather Observations for Esperance Airport

IDW60801

Issued at 12:04 pm WST Wednesday 24 August 2016 (issued every 30 minutes, with the page automatically refreshed every 10 minutes)

About weather observations | Map of weather stations | Latest weather observations for WA | Other Formats
Station Details ID: 009542 Name: ESPERANCE AERO Lat: -33.68 Lon: 121.83 Height: 142.0 m
Data from the previous 72 hours. | See also: Recent months at Esperance Airport
Date/Time
WST
Temp
°C
App
Temp
°C
Dew
Point
°C
Rel
Hum
%
Delta-T
°C
Wind Press
QNH
hPa
Press
MSL
hPa
Rain since
9am
mm
Dir  Spd
km/h
Gust
km/h
Spd
kts
Gust
kts
24/12:00pm 12.3 5.7 7.8 74 2.2 SSW 32 39 17 21 1024.7 1024.7 0.0
24/11:30am 12.4 6.0 7.1 70 2.6 SW 30 37 16 20 1025.0 1025.0 0.0
24/11:00am 12.1 5.9 8.0 76 2.0 SSW 30 41 16 22 1025.3 1025.3 0.0
24/10:30am 11.6 6.0 7.3 75 2.1 SSW 26 39 14 21 1025.5 1025.5 0.0
24/10:00am 11.9 6.7 7.4 74 2.2 SW 24 32 13 17 1025.4 1025.4 0.0
24/09:30am 11.7 6.8 7.0 73 2.3 SW 22 28 12 15 1025.2 1025.2 0.0
24/09:00am 11.1 7.6 7.4 78 1.8 SW 15 20 8 11 1025.2 1025.2 7.0
24/08:30am 9.7 6.9 7.1 84 1.2 W 11 13 6 7 1025.3 1025.3 7.0
24/08:00am 8.4 5.4 6.2 86 1.0 W 11 13 6 7 1025.2 1025.2 7.0
24/07:30am 7.5 4.8 5.8 89 0.8 WNW 9 11 5 6 1024.9 1024.9 7.0
24/07:00am 6.4 3.9 5.0 91 0.6 WNW 7 9 4 5 1024.9 1024.9 7.0
24/06:30am 5.8 2.9 4.4 91 0.6 W 9 11 5 6 1024.8 1024.8 7.0
24/06:00am 6.0 2.7 4.3 89 0.7 W 11 13 6 7 1024.7 1024.7 7.0
24/05:30am 7.0 4.2 5.3 89 0.8 WSW 9 13 5 7 1024.5 1024.5 7.0
24/05:00am 7.2 4.9 5.5 89 0.8 W 7 9 4 5 1024.3 1024.3 7.0
24/04:30am 6.8 3.5 4.6 86 1.0 WNW 11 13 6 7 1024.2 1024.2 7.0
24/04:00am 6.3 3.2 3.8 84 1.1 WNW 9 11 5 6 1024.1 1024.1 7.0
24/03:30am 6.5 4.4 3.7 82 1.2 WSW 4 6 2 3 1024.0 1024.0 7.0
24/03:00am 4.9 2.2 2.6 85 0.9 WNW 6 7 3 4 1024.0 1024.0 7.0
24/02:30am 5.8 4.2 2.4 79 1.4 CALM 0 0 0 0 1024.1 1024.1 7.0
24/02:00am 6.0 4.5 2.8 80 1.3 CALM 0 6 0 3 1024.2 1024.2 7.0
24/01:30am 6.0 3.7 2.8 80 1.3 SW 4 6 2 3 1024.3 1024.3 7.0
24/01:00am 6.4 3.8 3.4 81 1.3 S 6 7 3 4 1024.3 1024.3 7.0
24/12:30am 7.0 4.4 3.1 76 1.7 SSE 6 7 3 4 1024.3 1024.3 7.0
24/12:00am 7.3 4.1 3.2 75 1.7 SSE 9 11 5 6 1024.2 1024.2 7.0
 
Date/Time
WST
Temp
°C
App
Temp
°C
Dew
Point
°C
Rel
Hum
%
Delta-T
°C
Wind Press
QNH
hPa
Press
MSL
hPa
Rain since
9am
mm
Dir  Spd
km/h
Gust
km/h
Spd
kts
Gust
kts
23/11:30pm 7.5 4.0 3.4 75 1.8 SSE 11 15 6 8 1024.3 1024.3 7.0
23/11:00pm 8.9 5.1 3.9 71 2.2 SSE 13 17 7 9 1024.3 1024.3 7.0
23/10:30pm 8.7 5.5 5.3 79 1.5 S 11 13 6 7 1024.6 1024.6 7.0
23/10:00pm 9.0 5.9 5.6 79 1.5 S 11 15 6 8 1024.6 1024.6 7.0
23/09:30pm 9.1 6.0 5.7 79 1.6 S 11 15 6 8 1024.6 1024.6 7.0
23/09:00pm 9.3 6.2 5.7 78 1.6 SSE 11 15 6 8 1024.5 1024.5 7.0
23/08:30pm 9.2 6.2 6.1 81 1.4 S 11 15 6 8 1024.3 1024.3 7.0
23/08:00pm 9.2 5.9 6.5 83 1.3 S 13 19 7 10 1024.1 1024.1 7.0
23/07:30pm 9.1 6.4 7.4 89 0.8 S 11 13 6 7 1023.7 1023.8 7.0
23/07:00pm 9.1 6.1 7.7 91 0.7 SW 13 19 7 10 1023.4 1023.5 7.0
23/06:44pm 9.3 6.4 8.1 92 0.6 SW 13 15 7 8 1023.3 1023.4 7.0
23/06:32pm 9.1 5.4 8.0 93 0.5 S 17 28 9 15 1023.1 1023.2 7.0
23/06:30pm 9.1 5.8 8.0 93 0.5 S 15 26 8 14 1023.1 1023.2 7.0
23/06:24pm 9.0 5.7 8.1 94 0.4 S 15 20 8 11 1023.1 1023.2 7.0
23/06:03pm 9.1 6.2 8.2 94 0.4 SSW 13 17 7 9 1023.1 1023.2 7.0
23/06:00pm 9.1 6.2 8.2 94 0.4 SSW 13 17 7 9 1023.0 1023.1 6.8
23/05:30pm 9.2 6.7 8.3 94 0.4 S 11 15 6 8 1022.6 1022.7 6.8
23/05:00pm 9.2 5.0 8.3 94 0.4 S 20 32 11 17 1022.3 1022.4 6.8
23/04:59pm 9.2 5.2 8.3 94 0.4 S 19 24 10 13 1022.3 1022.4 6.8
23/04:34pm 9.6 5.5 8.7 94 0.4 S 20 30 11 16 1022.1 1022.2 6.6
23/04:30pm 9.5 5.4 8.6 94 0.4 S 20 30 11 16 1022.0 1022.1 6.4
23/04:03pm 9.5 5.4 8.6 94 0.4 S 20 24 11 13 1021.9 1022.0 6.4
23/04:00pm 9.6 5.5 8.7 94 0.4 S 20 30 11 16 1021.9 1022.0 6.4
23/03:51pm 9.3 4.4 8.4 94 0.4 S 24 30 13 16 1021.8 1021.9 6.0
23/03:30pm 9.2 4.6 8.3 94 0.4 S 22 32 12 17 1021.8 1021.9 5.0
23/03:10pm 10.0 5.6 8.9 93 0.5 S 22 28 12 15 1021.5 1021.5 3.0
23/03:00pm 10.2 5.8 9.0 92 0.6 S 22 30 12 16 1021.5 1021.5 2.8
23/02:30pm 9.8 5.0 8.7 93 0.5 SSW 24 37 13 20 1021.4 1021.4 2.6
23/02:11pm 10.2 6.2 9.1 93 0.5 SSW 20 26 11 14 1021.4 1021.4 2.6
23/02:00pm 9.8 5.7 8.7 93 0.5 S 20 28 11 15 1021.3 1021.3 2.6
23/01:44pm 9.8 4.1 8.2 90 0.8 S 28 35 15 19 1021.2 1021.2 2.0
23/01:31pm 10.2 5.4 8.8 91 0.7 S 24 32 13 17 1021.1 1021.1 1.6
23/01:30pm 10.3 5.9 8.9 91 0.7 S 22 32 12 17 1021.2 1021.2 1.6
23/01:04pm 10.1 4.8 8.5 90 0.8 SE 26 35 14 19 1021.2 1021.2 1.0
23/01:00pm 10.2 4.5 8.3 88 0.9 SSE 28 35 15 19 1021.1 1021.1 1.0
23/12:37pm 11.0 7.2 9.1 88 1.0 SSW 19 24 10 13 1021.2 1021.2 1.0
23/12:30pm 10.5 6.7 9.1 91 0.7 SSW 19 24 10 13 1021.3 1021.3 1.0
23/12:13pm 10.4 6.4 8.3 87 1.0 SSW 19 30 10 16 1021.6 1021.6 0.4
23/12:00pm 10.8 6.7 8.6 86 1.1 S 20 30 11 16 1021.6 1021.6 0.2
23/11:30am 11.0 6.1 8.6 85 1.2 S 24 37 13 20 1021.8 1021.9 0.2
23/11:25am 10.4 5.3 7.6 83 1.4 S 24 37 13 20 1021.8 1021.9 0.2
23/11:01am 10.0 4.4 7.3 83 1.3 SSE 26 39 14 21 1022.0 1022.1 0.2
23/11:00am 10.0 4.0 7.1 82 1.4 SSE 28 39 15 21 1022.0 1022.1 0.0
23/10:30am 11.4 4.9 6.3 71 2.4 S 30 39 16 21 1021.9 1022.0 0.0
23/10:00am 11.6 5.3 5.7 67 2.7 S 28 37 15 20 1021.8 1021.9 0.0
23/09:30am 11.1 3.8 5.6 69 2.6 S 33 43 18 23 1021.6 1021.6 0.0
23/09:00am 10.8 5.0 6.2 73 2.2 S 26 35 14 19 1021.5 1021.5 16.0
23/08:30am 10.2 4.0 6.0 75 2.0 S 28 39 15 21 1021.1 1021.1 16.0
23/08:00am 9.5 3.4 6.4 81 1.4 S 28 37 15 20 1020.8 1020.8 16.0
23/07:30am 9.1 2.5 6.0 81 1.4 S 30 39 16 21 1020.7 1020.7 16.0
23/07:00am 9.7 4.2 5.9 77 1.8 SSW 24 33 13 18 1020.5 1020.5 16.0
23/06:30am 9.3 2.6 5.7 78 1.7 SSW 30 37 16 20 1020.3 1020.3 16.0
23/06:00am 9.5 2.8 5.7 77 1.7 S 30 37 16 20 1020.0 1020.0 16.0
23/05:30am 9.4 2.7 5.6 77 1.7 S 30 37 16 20 1019.6 1019.6 16.0
23/05:00am 9.3 3.8 5.9 79 1.6 SSW 24 39 13 21 1019.3 1019.3 16.0
23/04:30am 8.8 3.0 6.4 85 1.1 S 26 35 14 19 1019.1 1019.1 16.0
23/04:00am 8.9 4.6 7.2 89 0.8 S 19 24 10 13 1018.9 1018.9 15.8
23/03:33am 8.9 4.1 7.4 90 0.7 S 22 30 12 16 1018.7 1018.7 15.2
23/03:30am 9.0 3.5 7.5 90 0.7 S 26 37 14 20 1018.7 1018.7 15.2
23/03:00am 9.0 2.7 7.6 91 0.7 S 30 41 16 22 1018.6 1018.6 14.0
23/02:59am 9.0 3.1 7.6 91 0.7 S 28 41 15 22 1018.6 1018.6 14.0
23/02:30am 9.1 3.4 6.9 86 1.0 S 26 33 14 18 1018.5 1018.5 13.6
23/02:00am 9.5 3.0 6.4 81 1.4 SSW 30 43 16 23 1018.3 1018.3 13.4
23/01:30am 9.3 3.2 6.7 84 1.2 S 28 37 15 20 1018.4 1018.4 13.4
23/01:00am 9.1 3.0 6.7 85 1.1 S 28 35 15 19 1018.6 1018.6 13.0
23/12:35am 9.3 2.5 7.1 86 1.0 S 32 52 17 28 1018.6 1018.6 12.6
23/12:30am 9.3 3.0 7.4 88 0.9 S 30 37 16 20 1018.5 1018.5 12.6
23/12:23am 9.2 2.9 7.3 88 0.9 S 30 39 16 21 1018.5 1018.5 12.6
23/12:04am 9.0 2.3 7.5 90 0.7 S 32 43 17 23 1018.5 1018.5 12.4
23/12:00am 9.2 2.8 7.0 86 1.0 S 30 43 16 23 1018.5 1018.5 12.2
 
Date/Time
WST
Temp
°C
App
Temp
°C
Dew
Point
°C
Rel
Hum
%
Delta-T
°C
Wind Press
QNH
hPa
Press
MSL
hPa
Rain since
9am
mm
Dir  Spd
km/h
Gust
km/h
Spd
kts
Gust
kts
22/11:42pm 9.4 3.4 7.2 86 1.0 SSW 28 35 15 19 1018.3 1018.3 12.2
22/11:33pm 9.2 2.5 7.3 88 0.9 SSW 32 50 17 27 1018.4 1018.4 12.2
22/11:30pm 9.1 2.2 7.4 89 0.8 SSW 33 50 18 27 1018.4 1018.4 12.2
22/11:25pm 9.2 2.3 7.3 88 0.9 SSW 33 50 18 27 1018.4 1018.4 12.2
22/11:24pm 9.3 2.6 7.3 87 1.0 SSW 32 50 17 27 1018.4 1018.4 12.2
22/11:00pm 9.8 3.0 6.7 81 1.5 S 32 44 17 24 1018.4 1018.4 12.0
22/10:47pm 10.0 3.1 6.5 79 1.6 SSW 32 52 17 28 1018.2 1018.2 12.0
22/10:30pm 9.8 3.8 7.2 84 1.2 S 28 41 15 22 1018.2 1018.2 12.0
22/10:00pm 9.6 3.6 7.2 85 1.1 S 28 39 15 21 1018.2 1018.2 12.0
22/09:52pm 9.4 3.5 7.3 87 1.0 SSW 28 37 15 20 1018.2 1018.2 12.0
22/09:30pm 9.1 2.3 7.9 92 0.6 S 33 46 18 25 1018.4 1018.4 11.8
22/09:20pm 9.4 2.2 7.5 88 0.9 SSW 35 52 19 28 1018.2 1018.2 11.6
22/09:13pm 9.6 3.7 7.5 87 1.0 SSW 28 46 15 25 1018.1 1018.1 11.4
22/09:00pm 9.5 4.0 7.4 87 1.0 SSW 26 39 14 21 1018.0 1018.0 11.4
22/08:45pm 9.2 2.9 7.5 89 0.8 SSW 30 41 16 22 1018.1 1018.1 11.4
22/08:30pm 9.3 2.6 8.1 92 0.6 SSW 33 44 18 24 1018.1 1018.1 11.4
22/08:27pm 9.3 2.5 7.9 91 0.7 SSW 33 44 18 24 1018.0 1018.0 11.4
22/08:18pm 9.5 2.9 7.6 88 0.9 SSW 32 50 17 27 1017.8 1017.8 11.0
22/08:00pm 9.6 2.9 7.4 86 1.0 SSW 32 41 17 22 1017.7 1017.7 11.0
22/07:40pm 9.9 3.5 7.0 82 1.4 SSW 30 54 16 29 1017.5 1017.5 11.0
22/07:30pm 9.7 3.4 7.3 85 1.1 S 30 43 16 23 1017.5 1017.5 11.0
22/07:00pm 9.8 3.2 7.7 87 1.0 SSW 32 43 17 23 1017.1 1017.1 11.0
22/06:32pm 9.6 3.1 8.0 90 0.8 SSW 32 43 17 23 1016.8 1016.8 11.0
22/06:30pm 9.5 3.0 8.1 91 0.7 SSW 32 43 17 23 1016.7 1016.7 11.0
22/06:13pm 9.4 2.3 8.2 92 0.6 SSW 35 50 19 27 1016.6 1016.6 10.8
22/06:00pm 9.4 3.3 8.3 93 0.5 SSW 30 39 16 21 1016.3 1016.4 10.6
22/05:52pm 9.5 2.9 8.6 94 0.4 SSW 33 52 18 28 1016.1 1016.2 10.6
22/05:47pm 9.5 2.6 8.7 95 0.4 SSW 35 52 19 28 1016.0 1016.1 10.6
22/05:36pm 9.5 2.6 8.9 96 0.3 SSW 35 46 19 25 1015.9 1016.0 10.6
22/05:30pm 9.2 1.9 8.6 96 0.3 SSW 37 46 20 25 1015.7 1015.7 10.6
22/05:00pm 9.7 2.9 9.2 97 0.2 SSW 35 50 19 27 1015.4 1015.4 10.4
22/04:54pm 9.7 3.5 9.2 97 0.2 SSW 32 50 17 27 1015.3 1015.3 10.4
22/04:52pm 9.7 3.5 9.2 97 0.2 SSW 32 41 17 22 1015.3 1015.3 10.4
22/04:39pm 9.3 2.4 8.7 96 0.3 SSW 35 54 19 29 1015.0 1015.0 10.2
22/04:38pm 9.3 2.4 8.7 96 0.3 SSW 35 54 19 29 1015.0 1015.0 10.2
22/04:30pm 9.3 1.6 8.7 96 0.3 SSW 39 56 21 30 1015.0 1015.0 9.8
22/04:25pm 9.5 2.2 8.6 94 0.4 SSW 37 56 20 30 1015.0 1015.0 9.2
22/04:23pm 9.6 2.7 8.7 94 0.4 SSW 35 52 19 28 1015.0 1015.0 8.8
22/04:09pm 9.6 2.2 8.5 93 0.5 SSW 37 57 20 31 1014.7 1014.7 8.4
22/04:00pm 9.9 3.3 8.5 91 0.7 SSW 33 50 18 27 1014.6 1014.6 8.2
22/03:59pm 9.9 3.3 8.5 91 0.7 SSW 33 50 18 27 1014.5 1014.5 8.2
22/03:50pm 10.0 3.0 8.4 90 0.8 SSW 35 44 19 24 1014.4 1014.4 8.0
22/03:34pm 9.9 2.9 8.3 90 0.8 SSW 35 44 19 24 1014.2 1014.2 8.0
22/03:30pm 10.6 4.0 8.7 88 0.9 SSW 33 46 18 25 1014.3 1014.3 7.8
22/03:22pm 10.2 3.7 9.0 92 0.6 SSW 33 46 18 25 1014.0 1014.0 7.6
22/03:05pm 10.0 2.8 9.1 94 0.4 SSW 37 56 20 30 1013.9 1013.9 7.6
22/03:00pm 10.5 3.7 9.4 93 0.6 SSW 35 50 19 27 1013.9 1013.9 7.4
22/02:56pm 10.3 2.7 9.2 93 0.6 SSW 39 57 21 31 1013.8 1013.8 7.4
22/02:48pm 10.3 2.1 8.4 88 0.9 SSW 41 57 22 31 1013.7 1013.7 7.2
22/02:43pm 11.2 3.7 8.1 81 1.5 SSW 37 56 20 30 1013.6 1013.6 7.2
22/02:30pm 10.5 3.1 8.3 86 1.1 SSW 37 54 20 29 1013.5 1013.5 7.2
22/02:00pm 10.5 2.7 9.7 95 0.4 SSW 41 61 22 33 1013.4 1013.4 7.2
22/01:57pm 11.1 3.8 10.3 95 0.4 SSW 39 57 21 31 1013.3 1013.3 7.2
22/01:52pm 11.0 4.5 10.4 96 0.3 SSW 35 50 19 27 1013.4 1013.4 7.2
22/01:30pm 10.5 3.1 9.9 96 0.3 SSW 39 57 21 31 1013.3 1013.3 7.0
22/01:17pm 10.6 2.8 9.8 95 0.4 SSW 41 59 22 32 1013.1 1013.1 6.8
22/01:00pm 10.4 2.5 9.3 93 0.6 SSW 41 52 22 28 1013.2 1013.2 6.2
22/12:48pm 10.7 2.3 9.5 92 0.6 SSW 44 61 24 33 1013.1 1013.1 5.8
22/12:37pm 12.4 3.8 8.7 78 1.9 SSW 44 65 24 35 1012.9 1012.9 5.8
22/12:30pm 11.6 2.5 8.3 80 1.6 SSW 46 63 25 34 1013.0 1013.0 5.8
22/12:22pm 11.8 4.5 8.8 82 1.5 SSW 37 57 20 31 1013.2 1013.2 5.8
22/12:07pm 10.3 2.1 8.4 88 0.9 SW 41 59 22 32 1013.3 1013.3 5.8
22/12:04pm 10.6 2.8 8.4 86 1.1 SW 39 57 21 31 1013.4 1013.4 5.8
22/12:00pm 11.0 3.3 8.8 86 1.1 SW 39 52 21 28 1013.3 1013.3 5.8
22/11:46am 11.6 4.3 8.8 83 1.4 SSW 37 56 20 30 1013.4 1013.4 5.8
22/11:32am 11.0 3.7 8.8 86 1.1 SSW 37 50 20 27 1013.4 1013.4 5.8
22/11:30am 11.0 3.4 9.1 88 1.0 SW 39 52 21 28 1013.4 1013.4 5.8
22/11:01am 10.7 3.5 9.1 90 0.8 SSW 37 57 20 31 1013.4 1013.4 5.6
22/11:00am 10.9 3.7 9.3 90 0.8 SSW 37 52 20 28 1013.5 1013.5 5.6
22/10:48am 10.6 3.5 9.5 93 0.6 SSW 37 56 20 30 1013.4 1013.4 5.6
22/10:38am 10.3 3.9 9.2 93 0.6 SW 33 57 18 31 1013.3 1013.3 5.6
22/10:32am 10.4 4.2 9.5 94 0.5 SSW 32 43 17 23 1013.3 1013.3 5.6
22/10:30am 10.3 4.5 9.4 94 0.5 SSW 30 43 16 23 1013.3 1013.3 5.6
22/10:28am 10.1 4.2 9.2 94 0.4 SSW 30 39 16 21 1013.3 1013.3 5.6
22/10:00am 9.7 3.4 8.8 94 0.4 SSW 32 44 17 24 1013.1 1013.1 4.2
22/09:51am 9.8 3.9 8.9 94 0.4 SSW 30 44 16 24 1013.0 1013.0 3.4
22/09:44am 10.0 4.5 9.1 94 0.4 S 28 43 15 23 1012.9 1012.9 3.0
22/09:30am 9.9 4.4 9.0 94 0.4 SSW 28 39 15 21 1012.7 1012.7 2.4
22/09:00am 10.1 6.3 9.2 94 0.4 SSW 19 28 10 15 1012.3 1012.3 13.2
22/08:37am 10.1 6.7 9.2 94 0.4 SSW 17 28 9 15 1012.1 1012.1 10.0
22/08:30am 10.0 5.3 9.1 94 0.4 SSW 24 39 13 21 1012.0 1012.0 9.2
22/08:22am 10.1 4.9 9.0 93 0.5 SW 26 39 14 21 1011.9 1011.9 7.0
22/08:12am 9.9 5.9 9.0 94 0.4 WSW 20 43 11 23 1011.6 1011.6 2.4
22/08:05am 9.7 5.8 8.8 94 0.4 WNW 19 22 10 12 1011.6 1011.6 1.0
22/08:00am 9.7 5.8 8.8 94 0.4 WNW 19 26 10 14 1011.6 1011.6 0.6
22/07:34am 9.5 4.6 8.6 94 0.4 WNW 24 33 13 18 1011.5 1011.5 0.4
22/07:30am 9.7 5.3 8.8 94 0.4 WNW 22 30 12 16 1011.6 1011.6 0.2
22/07:18am 9.4 4.5 8.5 94 0.4 NW 24 30 13 16 1011.5 1011.5 0.2
22/07:12am 9.2 4.6 8.3 94 0.4 NW 22 30 12 16 1011.4 1011.4 0.2
22/07:00am 9.0 4.7 7.9 93 0.5 NW 20 28 11 15 1011.3 1011.3 0.2
22/06:53am 9.0 4.7 7.9 93 0.5 NW 20 30 11 16 1011.3 1011.3 0.2
22/06:30am 8.7 4.5 7.5 92 0.6 NW 19 26 10 14 1011.2 1011.2 0.2
22/06:00am 8.5 4.1 7.3 92 0.6 NW 20 28 11 15 1011.1 1011.1 0.2
22/05:59am 8.4 4.1 7.2 92 0.6 NW 19 28 10 15 1011.1 1011.1 0.2
22/05:30am 8.4 4.5 7.0 91 0.7 NW 17 22 9 12 1011.0 1011.0 0.2
22/05:00am 8.4 3.9 7.0 91 0.7 WNW 20 26 11 14 1010.9 1010.9 0.2
22/04:30am 8.5 4.0 6.8 89 0.8 NW 20 28 11 15 1010.8 1010.8 0.2
22/04:00am 8.7 4.7 6.8 88 0.9 NW 17 20 9 11 1010.8 1010.8 0.2
22/03:30am 8.4 3.7 6.2 86 1.0 NW 20 26 11 14 1010.9 1010.9 0.2
22/03:00am 8.2 3.6 5.5 83 1.2 NW 19 26 10 14 1010.9 1010.9 0.2
22/02:30am 8.5 3.8 5.1 79 1.5 NNW 19 24 10 13 1011.0 1011.0 0.2
22/02:00am 7.8 3.0 4.7 81 1.4 N 19 24 10 13 1011.2 1011.2 0.2
22/01:30am 8.0 3.6 4.6 79 1.5 N 17 20 9 11 1011.5 1011.5 0.2
22/01:00am 8.5 4.1 4.7 77 1.7 N 17 22 9 12 1011.6 1011.6 0.2
22/12:30am 8.5 4.1 4.7 77 1.7 N 17 20 9 11 1011.9 1011.9 0.2
22/12:00am 7.7 3.3 4.8 82 1.3 N 17 19 9 10 1012.2 1012.2 0.2
 
Date/Time
WST
Temp
°C
App
Temp
°C
Dew
Point
°C
Rel
Hum
%
Delta-T
°C
Wind Press
QNH
hPa
Press
MSL
hPa
Rain since
9am
mm
Dir  Spd
km/h
Gust
km/h
Spd
kts
Gust
kts
21/11:30pm 8.0 3.6 4.9 81 1.4 N 17 19 9 10 1012.5 1012.5 0.2
21/11:00pm 7.6 3.3 5.1 84 1.1 N 17 20 9 11 1012.9 1012.9 0.2
21/10:30pm 7.5 4.2 4.8 83 1.2 N 11 15 6 8 1013.2 1013.2 0.2
21/10:00pm 7.9 3.6 5.2 83 1.2 N 17 20 9 11 1013.4 1013.4 0.2
21/09:30pm 7.7 3.7 5.0 83 1.2 N 15 19 8 10 1013.8 1013.8 0.2
21/09:00pm 7.6 3.9 4.6 81 1.3 N 13 15 7 8 1014.0 1014.0 0.2
21/08:30pm 8.7 5.4 4.7 76 1.8 N 11 13 6 7 1014.2 1014.2 0.2
21/08:00pm 9.1 6.3 5.1 76 1.8 N 9 9 5 5 1014.3 1014.3 0.2
21/07:30pm 9.6 7.1 4.8 72 2.2 NW 7 9 4 5 1014.4 1014.4 0.2
21/07:00pm 9.7 7.1 5.9 77 1.8 W 9 13 5 7 1014.6 1014.6 0.2
21/06:30pm 10.7 7.4 6.3 74 2.1 W 13 17 7 9 1014.7 1014.7 0.2
21/06:00pm 11.7 9.5 8.0 78 1.8 WNW 9 15 5 8 1014.7 1014.7 0.2
21/05:30pm 12.0 10.4 7.9 76 2.0 N 6 7 3 4 1014.4 1014.4 0.2
21/05:00pm 12.8 11.1 7.5 70 2.6 NNW 6 7 3 4 1014.3 1014.3 0.2
21/04:30pm 13.6 11.5 6.7 63 3.4 WNW 7 11 4 6 1014.3 1014.3 0.2
21/04:00pm 14.4 11.6 5.2 54 4.4 W 9 13 5 7 1014.5 1014.5 0.2
21/03:30pm 14.2 11.2 6.1 58 3.9 WNW 11 22 6 12 1014.7 1014.7 0.2
21/03:00pm 14.2 11.5 5.8 57 4.0 W 9 15 5 8 1014.9 1014.9 0.2
21/02:30pm 13.8 10.1 6.2 60 3.7 WSW 15 22 8 12 1015.1 1015.1 0.2
21/02:00pm 13.8 10.1 6.2 60 3.7 WSW 15 24 8 13 1015.3 1015.3 0.2
21/01:30pm 13.9 9.9 6.5 61 3.6 WSW 17 26 9 14 1015.4 1015.4 0.0
21/01:00pm 13.4 9.2 7.4 67 2.9 WSW 19 24 10 13 1015.7 1015.7 0.0
21/12:30pm 13.5 9.9 6.8 64 3.3 W 15 19 8 10 1015.9 1016.0 0.0

Other Formats:

Comma delimited format used in spreadsheet applications
http://www.bom.gov.au/fwo/IDW60801/IDW60801.95638.axf

JavaScript Object Notation format (JSON) in row-major order
http://www.bom.gov.au/fwo/IDW60801/IDW60801.95638.json